createdAt,value
2017-08-15T00:01:55.392Z,6.37
2017-08-15T00:04:24.951Z,6.47
2017-08-15T00:06:54.581Z,6.57
2017-08-15T00:09:24.162Z,6.20
2017-08-15T00:11:53.760Z,6.17
2017-08-15T00:14:23.398Z,6.30
2017-08-15T00:16:52.969Z,6.63
2017-08-15T00:19:22.609Z,7.00
2017-08-15T00:21:52.177Z,6.00
2017-08-15T00:24:21.809Z,6.67
2017-08-15T00:26:51.386Z,5.27
2017-08-15T00:29:21.016Z,5.27
2017-08-15T00:31:50.586Z,6.07
2017-08-15T00:37:35.954Z,5.07
2017-08-15T00:40:05.530Z,5.50
2017-08-15T00:42:35.178Z,5.87
2017-08-15T00:45:04.740Z,5.50
2017-08-15T00:47:34.380Z,5.93
2017-08-15T00:50:03.946Z,5.50
2017-08-15T00:52:33.577Z,5.50
2017-08-15T00:55:03.165Z,6.70
2017-08-15T00:57:32.797Z,6.10
2017-08-15T01:00:02.354Z,6.73
2017-08-15T01:02:38.309Z,5.20
2017-08-15T01:05:07.900Z,6.00
2017-08-15T01:07:37.529Z,5.30
2017-08-15T01:10:07.096Z,5.63
2017-08-15T01:12:36.706Z,5.90
2017-08-15T01:15:06.339Z,6.00
2017-08-15T01:20:31.099Z,4.63
2017-08-15T01:23:00.678Z,6.20
2017-08-15T01:25:30.310Z,5.40
2017-08-15T01:27:59.897Z,6.03
2017-08-15T01:30:36.994Z,6.23
2017-08-15T01:33:06.569Z,4.73
2017-08-15T01:35:36.201Z,6.13
2017-08-15T01:38:05.768Z,5.77
2017-08-15T01:40:35.397Z,5.87
2017-08-15T01:43:04.974Z,5.40
2017-08-15T01:45:34.620Z,5.30
2017-08-15T01:48:04.215Z,4.80
2017-08-15T01:50:37.137Z,5.20
2017-08-15T01:53:06.719Z,5.37
2017-08-15T01:55:36.348Z,5.87
2017-08-15T01:58:05.907Z,5.20
2017-08-15T02:00:35.559Z,5.60
2017-08-15T02:03:05.138Z,5.80
2017-08-15T02:05:34.791Z,5.50
2017-08-15T02:08:04.356Z,4.83
2017-08-15T02:10:33.981Z,4.77
2017-08-15T02:13:03.550Z,5.33
2017-08-15T02:15:33.182Z,5.40
2017-08-15T02:20:58.157Z,5.10
2017-08-15T02:23:27.771Z,4.90
2017-08-15T02:25:57.363Z,5.67
2017-08-15T02:28:26.992Z,5.33
2017-08-15T02:30:56.561Z,5.30
2017-08-15T02:33:26.209Z,5.50
2017-08-15T02:35:55.783Z,4.73
2017-08-15T02:38:25.421Z,5.40
2017-08-15T02:43:50.055Z,4.77
2017-08-15T02:46:36.971Z,5.77
2017-08-15T02:49:06.610Z,5.30
2017-08-15T02:51:36.181Z,5.40
2017-08-15T02:54:05.828Z,4.97
2017-08-15T02:56:35.400Z,4.60
2017-08-15T02:59:04.997Z,4.90
2017-08-15T03:01:34.556Z,5.50
2017-08-15T03:04:04.200Z,4.97
2017-08-15T03:06:33.769Z,4.47
2017-08-15T03:11:58.523Z,4.57
2017-08-15T03:14:28.123Z,4.20
2017-08-15T03:16:57.777Z,5.00
2017-08-15T03:19:27.362Z,4.90
2017-08-15T03:21:57.076Z,4.40
2017-08-15T03:24:26.631Z,4.60
2017-08-15T03:26:56.232Z,4.23
2017-08-15T03:29:25.843Z,4.90
2017-08-15T03:31:55.409Z,4.20
2017-08-15T03:34:25.053Z,4.40
2017-08-15T03:36:54.629Z,5.00
2017-08-15T03:39:24.240Z,4.47
2017-08-15T03:41:53.810Z,4.03
2017-08-15T03:44:23.427Z,4.30
2017-08-15T03:46:52.992Z,4.63
2017-08-15T03:49:22.625Z,4.27
2017-08-15T03:51:52.267Z,4.30
2017-08-15T03:54:21.824Z,5.17
2017-08-15T03:56:51.432Z,4.77
2017-08-15T03:59:20.987Z,4.80
2017-08-15T04:01:50.617Z,4.43
2017-08-15T04:04:37.327Z,4.50
2017-08-15T04:07:06.966Z,4.67
2017-08-15T04:12:31.528Z,4.10
2017-08-15T04:15:01.090Z,4.20
2017-08-15T04:17:30.717Z,4.50
2017-08-15T04:20:00.287Z,4.50
2017-08-15T04:22:29.955Z,4.43
2017-08-15T04:24:59.534Z,4.40
2017-08-15T04:27:29.173Z,3.70
2017-08-15T04:29:58.740Z,4.47
2017-08-15T04:35:23.785Z,4.00
2017-08-15T04:37:53.361Z,4.60
2017-08-15T04:40:22.997Z,4.47
2017-08-15T04:42:52.564Z,4.50
2017-08-15T04:45:22.194Z,4.47
2017-08-15T04:47:51.766Z,3.60
2017-08-15T04:50:21.341Z,4.10
2017-08-15T04:52:50.969Z,4.00
2017-08-15T04:55:20.539Z,4.70
2017-08-15T04:57:50.177Z,4.00
2017-08-15T05:00:36.881Z,3.77
2017-08-15T05:03:06.522Z,4.10
2017-08-15T05:05:37.858Z,4.93
2017-08-15T05:08:07.476Z,4.00
2017-08-15T05:10:37.046Z,4.30
2017-08-15T05:13:06.618Z,3.93
2017-08-15T05:15:36.228Z,4.10
2017-08-15T05:18:05.798Z,3.70
2017-08-15T05:20:35.378Z,3.40
2017-08-15T05:23:05.001Z,3.63
2017-08-15T05:25:34.578Z,3.30
2017-08-15T05:28:04.136Z,4.00
2017-08-15T05:30:37.049Z,4.00
2017-08-15T05:33:06.647Z,4.70
2017-08-15T05:35:37.161Z,5.30
2017-08-15T05:43:56.858Z,4.53
2017-08-15T05:49:36.324Z,4.40
2017-08-15T05:57:56.019Z,7.80
2017-08-15T06:00:38.122Z,7.90
2017-08-15T06:11:52.264Z,5.67
2017-08-15T06:14:36.312Z,7.03
2017-08-15T06:20:01.033Z,6.73
2017-08-15T06:34:01.413Z,5.37
2017-08-15T06:39:38.148Z,5.33
2017-08-15T07:13:56.181Z,5.07
2017-08-15T07:22:36.338Z,4.60
2017-08-15T07:25:05.943Z,4.80
2017-08-15T07:27:38.647Z,4.67
2017-08-15T07:33:03.073Z,4.53
2017-08-15T07:52:55.735Z,4.90
2017-08-15T07:55:37.673Z,5.27
2017-08-15T08:09:47.265Z,4.73
2017-08-15T08:12:36.830Z,5.30
2017-08-15T08:29:39.955Z,4.27
2017-08-15T08:35:05.119Z,4.50
2017-08-15T08:37:34.707Z,4.27
2017-08-15T08:40:04.352Z,5.70
2017-08-15T08:42:33.929Z,6.23
2017-08-15T08:47:58.480Z,5.07
2017-08-15T08:53:22.858Z,3.67
2017-08-15T08:55:52.437Z,4.00
2017-08-15T08:58:22.099Z,4.77
2017-08-15T09:00:51.684Z,5.83
2017-08-15T09:03:21.345Z,4.30
2017-08-15T09:05:50.930Z,5.33
2017-08-15T09:08:20.523Z,4.23
2017-08-15T09:10:50.177Z,5.67
2017-08-15T09:13:19.745Z,5.47
2017-08-15T09:15:49.396Z,5.07
2017-08-15T09:21:13.715Z,5.20
2017-08-15T09:23:43.294Z,5.17
2017-08-15T09:26:12.888Z,5.47
2017-08-15T09:28:48.120Z,5.33
2017-08-15T09:31:17.694Z,5.60
2017-08-15T09:33:47.344Z,4.47
2017-08-15T09:36:17.224Z,5.80
2017-08-15T09:38:46.865Z,4.90
2017-08-15T09:41:16.460Z,5.30
2017-08-15T09:43:46.095Z,5.60
2017-08-15T09:46:36.420Z,4.90
2017-08-15T09:49:06.043Z,5.70
2017-08-15T09:51:35.630Z,5.17
2017-08-15T09:54:05.242Z,5.47
2017-08-15T09:56:34.808Z,5.47
2017-08-15T09:59:09.358Z,6.07
2017-08-15T10:01:38.927Z,5.57
2017-08-15T10:04:08.561Z,5.90
2017-08-15T10:06:38.147Z,5.80
2017-08-15T10:09:07.761Z,5.90
2017-08-15T10:14:37.768Z,5.13
2017-08-15T10:17:07.348Z,5.10
2017-08-15T10:19:36.965Z,5.00
2017-08-15T10:22:06.550Z,5.40
2017-08-15T10:24:37.791Z,5.00
2017-08-15T10:27:07.389Z,6.00
2017-08-15T10:29:36.967Z,6.40
2017-08-15T10:32:06.635Z,6.00
2017-08-15T10:34:36.210Z,5.47
2017-08-15T10:37:05.788Z,6.23
2017-08-15T10:39:35.483Z,6.00
2017-08-15T10:42:05.071Z,6.00
2017-08-15T10:44:34.673Z,6.30
2017-08-15T10:47:04.328Z,6.10
2017-08-15T10:49:33.912Z,5.30
2017-08-15T10:52:03.503Z,6.27
2017-08-15T10:54:33.106Z,5.90
2017-08-15T10:59:57.826Z,7.87
2017-08-15T11:02:27.429Z,6.53
2017-08-15T11:04:57.045Z,5.73
2017-08-15T11:07:37.086Z,5.70
2017-08-15T11:10:06.666Z,5.63
2017-08-15T11:12:36.323Z,4.93
2017-08-15T11:15:05.915Z,5.10
2017-08-15T11:17:35.550Z,5.70
2017-08-15T11:20:05.145Z,6.07
2017-08-15T11:22:37.834Z,6.43
2017-08-15T11:30:56.781Z,5.97
2017-08-15T11:33:38.925Z,5.63
2017-08-15T11:36:09.177Z,5.20
2017-08-15T11:38:38.758Z,5.17
2017-08-15T11:41:08.366Z,5.90
2017-08-15T11:43:57.073Z,6.27
2017-08-15T11:46:39.260Z,5.10
2017-08-15T11:49:08.974Z,4.40
2017-08-15T11:51:38.528Z,5.00
2017-08-15T11:57:03.254Z,6.10
2017-08-15T11:59:32.844Z,5.00
2017-08-15T12:04:57.200Z,4.00
2017-08-15T12:07:39.212Z,3.67
2017-08-15T12:10:08.822Z,3.40
2017-08-15T12:15:39.547Z,3.93
2017-08-15T12:26:53.538Z,3.93
2017-08-15T12:29:37.566Z,4.33
2017-08-15T12:35:02.509Z,3.60
2017-08-15T12:37:32.067Z,3.67
2017-08-15T12:40:01.684Z,3.23
2017-08-15T12:42:31.379Z,3.77
2017-08-15T12:45:00.953Z,3.13
2017-08-15T12:47:30.593Z,4.10
2017-08-15T12:50:00.449Z,3.13
2017-08-15T12:52:30.035Z,3.43
2017-08-15T12:54:59.717Z,4.13
2017-08-15T12:57:29.305Z,4.13
2017-08-15T13:02:53.973Z,3.70
2017-08-15T13:05:23.558Z,3.77
2017-08-15T13:07:53.171Z,3.90
2017-08-15T13:10:22.750Z,3.60
2017-08-15T13:12:52.339Z,4.00
2017-08-15T13:15:38.835Z,3.53
2017-08-15T13:18:08.428Z,3.50
2017-08-15T13:20:38.006Z,3.77
2017-08-15T13:23:07.641Z,4.27
2017-08-15T13:25:37.213Z,3.70
2017-08-15T13:31:02.036Z,4.10
2017-08-15T13:33:31.605Z,4.10
2017-08-15T13:36:01.194Z,3.67
2017-08-15T13:38:30.813Z,3.60
2017-08-15T13:41:00.400Z,4.03
2017-08-15T13:43:37.659Z,4.00
2017-08-15T13:46:07.247Z,3.60
2017-08-15T13:48:36.837Z,3.40
2017-08-15T13:51:06.486Z,4.30
2017-08-15T13:53:36.054Z,3.97
2017-08-15T13:59:00.603Z,3.97
2017-08-15T14:01:30.183Z,3.70
2017-08-15T14:03:59.753Z,4.30
2017-08-15T14:06:29.369Z,3.37
2017-08-15T14:08:58.936Z,4.00
2017-08-15T14:11:28.573Z,4.00
2017-08-15T14:13:58.148Z,3.50
2017-08-15T14:16:27.709Z,3.80
2017-08-15T14:18:57.343Z,3.40
2017-08-15T14:21:26.932Z,4.10
2017-08-15T14:23:56.517Z,3.90
2017-08-15T14:26:26.125Z,4.10
2017-08-15T14:28:55.767Z,3.97
2017-08-15T14:31:25.401Z,4.10
2017-08-15T14:33:54.974Z,8.20
2017-08-15T14:36:24.620Z,4.10
2017-08-15T14:38:54.275Z,4.30
2017-08-15T14:41:24.695Z,4.30
2017-08-15T14:43:54.305Z,4.10
2017-08-15T14:46:23.886Z,3.90
2017-08-15T14:48:53.455Z,4.30
2017-08-15T14:54:18.116Z,4.20
2017-08-15T14:56:47.690Z,3.67
2017-08-15T14:59:17.253Z,3.50
2017-08-15T15:01:46.884Z,4.13
2017-08-15T15:04:16.460Z,4.30
2017-08-15T15:09:40.805Z,3.83
2017-08-15T15:12:10.444Z,3.50
2017-08-15T15:14:40.017Z,4.10
2017-08-15T15:17:09.663Z,3.80
2017-08-15T15:19:39.233Z,3.43
2017-08-15T15:22:08.864Z,4.03
2017-08-15T15:24:38.436Z,3.47
2017-08-15T15:27:08.075Z,3.47
2017-08-15T15:29:37.724Z,3.50
2017-08-15T15:32:07.308Z,3.73
2017-08-15T15:37:31.800Z,3.70
2017-08-15T15:40:01.710Z,3.20
2017-08-15T15:42:31.344Z,3.60
2017-08-15T15:45:00.966Z,4.10
2017-08-15T15:47:30.588Z,3.97
2017-08-15T15:50:13.291Z,3.70
2017-08-15T15:52:42.871Z,4.03
2017-08-15T16:01:03.005Z,3.87
2017-08-15T16:03:38.366Z,3.90
2017-08-15T16:09:03.002Z,4.80
2017-08-15T16:14:39.728Z,3.87
2017-08-15T16:17:09.301Z,4.30
2017-08-15T16:19:39.205Z,4.67
2017-08-15T16:30:53.287Z,3.90
2017-08-15T16:36:23.316Z,4.90
2017-08-15T16:38:52.885Z,3.90
2017-08-15T16:41:22.462Z,7.00
2017-08-15T16:43:52.641Z,9.50
2017-08-15T16:46:22.365Z,4.20
2017-08-15T16:48:52.079Z,4.70
2017-08-15T16:51:21.671Z,3.93
2017-08-15T16:53:51.330Z,3.87
2017-08-15T16:56:20.978Z,3.97
2017-08-15T16:59:07.512Z,3.70
2017-08-15T17:01:37.077Z,3.90
2017-08-15T17:04:06.707Z,3.77
2017-08-15T17:06:39.386Z,3.87
2017-08-15T17:09:08.987Z,4.07
2017-08-15T17:11:38.639Z,4.07
2017-08-15T17:14:08.226Z,3.87
2017-08-15T17:16:37.878Z,4.37
2017-08-15T17:19:07.450Z,4.67
2017-08-15T17:21:37.096Z,5.30
2017-08-15T17:24:06.656Z,4.70
2017-08-15T17:26:39.521Z,5.07
2017-08-15T17:34:58.627Z,4.33
2017-08-15T17:37:28.289Z,4.90
2017-08-15T17:42:52.650Z,4.20
2017-08-15T17:45:22.228Z,4.53
2017-08-15T17:47:51.852Z,5.17
2017-08-15T17:50:38.697Z,4.60
2017-08-15T17:53:08.310Z,4.73
2017-08-15T17:58:38.849Z,4.70
2017-08-15T18:01:16.394Z,5.60
2017-08-15T18:03:46.041Z,4.77
2017-08-15T18:06:15.624Z,5.17
2017-08-15T18:08:45.201Z,5.00
2017-08-15T18:11:25.020Z,5.07
2017-08-15T18:13:55.464Z,5.00
2017-08-15T18:16:25.094Z,4.90
2017-08-15T18:18:54.681Z,4.90
2017-08-15T18:21:37.544Z,5.10
2017-08-15T18:29:56.907Z,5.40
2017-08-15T18:32:26.494Z,5.63
2017-08-15T18:46:37.787Z,5.40
2017-08-15T18:57:51.187Z,5.80
2017-08-15T19:00:20.777Z,6.07
2017-08-15T19:02:50.915Z,6.33
2017-08-15T19:05:37.564Z,5.20
2017-08-15T19:08:07.183Z,5.53
2017-08-15T19:10:36.749Z,6.20
2017-08-15T19:13:06.335Z,6.63
2017-08-15T19:15:35.949Z,6.40
2017-08-15T19:18:05.521Z,5.47
2017-08-15T19:23:37.481Z,4.20
2017-08-15T19:26:10.341Z,4.63
2017-08-15T19:28:40.008Z,4.53
2017-08-15T19:31:09.625Z,4.90
2017-08-15T19:33:39.235Z,5.27
2017-08-15T19:36:08.873Z,4.70
2017-08-15T19:44:27.851Z,5.53
2017-08-15T19:46:57.464Z,5.90
2017-08-15T19:49:27.059Z,5.77
2017-08-15T19:51:56.676Z,6.43
2017-08-15T19:57:20.845Z,6.20
2017-08-15T19:59:50.438Z,7.27
2017-08-15T20:02:20.014Z,5.93
2017-08-15T20:04:49.626Z,6.70
2017-08-15T20:07:38.290Z,5.90
2017-08-15T20:10:07.888Z,6.67
2017-08-15T20:15:32.463Z,5.80
2017-08-15T20:18:02.328Z,5.93
2017-08-15T20:20:31.906Z,5.23
2017-08-15T20:23:01.517Z,5.83
2017-08-15T20:25:31.077Z,6.30
2017-08-15T20:28:00.659Z,5.90
2017-08-15T20:30:30.307Z,4.97
2017-08-15T20:32:59.893Z,5.10
2017-08-15T20:35:29.509Z,5.83
2017-08-15T20:37:59.095Z,6.40
2017-08-15T20:40:28.969Z,6.50
2017-08-15T20:42:58.595Z,5.70
2017-08-15T20:45:28.170Z,4.93
2017-08-15T20:47:57.751Z,4.97
2017-08-15T20:50:27.356Z,4.50
2017-08-15T20:52:56.920Z,5.00
2017-08-15T20:55:26.489Z,4.70
2017-08-15T20:57:56.101Z,5.80
2017-08-15T21:00:25.688Z,4.60
2017-08-15T21:02:55.265Z,5.63
2017-08-15T21:05:25.201Z,5.20
2017-08-15T21:07:56.395Z,5.47
2017-08-15T21:13:20.938Z,4.97
2017-08-15T21:15:50.504Z,5.27
2017-08-15T21:18:20.086Z,5.47
2017-08-15T21:20:49.721Z,4.70
2017-08-15T21:23:38.576Z,5.60
2017-08-15T21:26:08.195Z,5.30
2017-08-15T21:28:37.765Z,5.03
2017-08-15T21:31:07.340Z,5.10
2017-08-15T21:33:36.955Z,5.20
2017-08-15T21:39:01.463Z,5.63
2017-08-15T21:41:31.033Z,5.50
2017-08-15T21:44:00.608Z,5.00
2017-08-15T21:46:30.224Z,5.50
2017-08-15T21:48:59.802Z,5.47
2017-08-15T21:51:29.373Z,5.40
2017-08-15T21:53:58.987Z,5.43
2017-08-15T21:56:28.557Z,6.10
2017-08-15T21:58:58.116Z,5.53
2017-08-15T22:01:33.413Z,5.10
2017-08-15T22:04:03.006Z,5.57
2017-08-15T22:06:38.757Z,5.53
2017-08-15T22:09:08.330Z,5.80
2017-08-15T22:11:37.910Z,5.27
2017-08-15T22:14:07.525Z,5.87
2017-08-15T22:16:37.092Z,5.90
2017-08-15T22:19:06.697Z,5.20
2017-08-15T22:21:39.601Z,4.87
2017-08-15T22:35:47.530Z,5.33
2017-08-15T22:38:17.153Z,6.10
2017-08-15T22:40:46.814Z,7.30
2017-08-15T22:43:16.394Z,7.00
2017-08-15T22:45:45.972Z,6.00
2017-08-15T22:51:10.356Z,7.50
2017-08-15T22:53:39.960Z,7.03
2017-08-15T22:56:09.546Z,6.50
2017-08-15T22:58:39.179Z,7.30
2017-08-15T23:04:03.825Z,4.67
2017-08-15T23:06:33.409Z,5.43
2017-08-15T23:09:02.996Z,6.20
2017-08-15T23:11:32.639Z,5.37
2017-08-15T23:14:02.209Z,5.97
2017-08-15T23:16:31.788Z,5.83
2017-08-15T23:19:01.411Z,5.93
2017-08-15T23:21:30.994Z,6.33
2017-08-15T23:24:00.563Z,6.97
2017-08-15T23:26:30.482Z,5.70
2017-08-15T23:31:55.583Z,7.47
2017-08-15T23:34:25.154Z,5.60
2017-08-15T23:36:54.722Z,5.57
2017-08-15T23:39:24.334Z,6.40
2017-08-15T23:41:53.915Z,5.90
2017-08-15T23:44:23.488Z,7.27
2017-08-15T23:46:53.125Z,6.73
2017-08-15T23:49:22.693Z,6.17
2017-08-15T23:51:52.253Z,5.13
2017-08-15T23:54:21.879Z,6.40
2017-08-15T23:59:46.755Z,6.10
